Time;durP1;ratioP1;P1;durP2;ratioP2;P2;SDS_P1;SDS_P2;PMS_P1;PMS_P2;Temp;Humidity;BMP_temperature;BMP_pressure;BME280_temperature;BME280_humidity;BME280_pressure;Samples;Min_cycle;Max_cycle;Signal;HPM_P1;HPM_P2
2022/01/29 00:01:28;;;;;;;40.75;10.55;;;8.10;99.90;;;;;;5133256;27;20186;-71
2022/01/29 00:03:54;;;;;;;48.72;11.85;;;8.10;99.90;;;;;;5129550;27;20180;-71
2022/01/29 00:06:19;;;;;;;41.30;11.82;;;8.10;99.90;;;;;;5129650;27;20203;-71
2022/01/29 00:08:45;;;;;;;39.63;11.13;;;8.10;99.90;;;;;;5129952;27;20191;-71
2022/01/29 00:11:14;;;;;;;46.13;11.32;;;8.10;99.90;;;;;;5131396;27;20207;-70
2022/01/29 00:13:40;;;;;;;46.35;11.32;;;8.10;99.90;;;;;;5110458;27;20277;-71
2022/01/29 00:16:06;;;;;;;38.72;9.48;;;8.10;99.90;;;;;;5128956;27;20295;-70
2022/01/29 00:18:33;;;;;;;45.33;10.60;;;8.20;99.90;;;;;;5128309;27;20181;-70
2022/01/29 00:20:58;;;;;;;44.38;10.07;;;8.20;99.90;;;;;;5131798;27;20188;-70
2022/01/29 00:23:24;;;;;;;48.10;10.02;;;8.20;99.90;;;;;;5110582;27;21348;-70
2022/01/29 00:25:50;;;;;;;46.47;10.02;;;8.20;99.90;;;;;;5113059;27;20204;-70
2022/01/29 00:28:15;;;;;;;42.72;9.90;;;8.20;99.90;;;;;;5124698;27;20188;-70
2022/01/29 00:30:43;;;;;;;36.80;9.43;;;8.20;99.90;;;;;;5130327;27;20180;-70
2022/01/29 00:33:09;;;;;;;53.10;10.13;;;8.20;99.90;;;;;;5111198;27;20184;-71
2022/01/29 00:35:35;;;;;;;50.03;10.48;;;8.20;99.90;;;;;;5129598;27;20336;-70
2022/01/29 00:38:01;;;;;;;44.47;9.23;;;8.20;99.90;;;;;;5129465;27;20267;-71
2022/01/29 00:40:27;;;;;;;44.80;9.85;;;8.20;99.90;;;;;;5133035;27;20660;-71
2022/01/29 00:42:53;;;;;;;38.40;8.70;;;8.30;99.90;;;;;;5130404;27;20211;-71
2022/01/29 00:45:19;;;;;;;35.75;9.20;;;8.30;99.90;;;;;;5128979;27;20632;-71
2022/01/29 00:47:44;;;;;;;55.70;10.77;;;8.30;99.90;;;;;;5127882;27;20227;-71
2022/01/29 00:50:11;;;;;;;46.88;8.88;;;8.30;99.90;;;;;;5132960;27;20176;-71
2022/01/29 00:52:38;;;;;;;33.10;10.20;;;8.30;99.90;;;;;;5129072;27;20311;-71
2022/01/29 00:55:05;;;;;;;32.20;10.18;;;8.30;99.90;;;;;;5128008;27;20184;-71
2022/01/29 00:57:33;;;;;;;37.17;10.68;;;8.30;99.90;;;;;;5129893;27;20184;-72
2022/01/29 00:59:59;;;;;;;32.15;10.70;;;8.30;99.90;;;;;;5130615;27;20257;-71
2022/01/29 01:02:24;;;;;;;46.10;13.27;;;8.30;99.90;;;;;;5129514;27;20637;-71
2022/01/29 01:04:50;;;;;;;36.78;11.27;;;8.30;99.90;;;;;;5131202;27;20177;-71
2022/01/29 01:07:16;;;;;;;47.95;11.88;;;8.40;99.90;;;;;;5129046;27;20185;-71
2022/01/29 01:09:41;;;;;;;48.58;12.13;;;8.30;99.90;;;;;;5128281;27;20180;-71
2022/01/29 01:12:08;;;;;;;44.25;11.80;;;8.40;99.90;;;;;;5113774;27;20607;-70
2022/01/29 01:14:33;;;;;;;39.28;12.55;;;8.40;99.90;;;;;;5112759;27;20189;-71
2022/01/29 01:16:59;;;;;;;37.72;11.88;;;8.40;99.90;;;;;;5131460;27;20184;-71
2022/01/29 01:19:26;;;;;;;44.83;13.68;;;8.40;99.90;;;;;;5131114;27;20222;-71
2022/01/29 01:21:56;;;;;;;38.22;11.77;;;8.40;99.90;;;;;;5128068;27;20660;-71
2022/01/29 01:24:23;;;;;;;40.67;12.20;;;8.40;99.90;;;;;;5130376;27;20184;-71
2022/01/29 01:26:49;;;;;;;42.22;11.60;;;8.40;99.90;;;;;;5130804;27;20191;-72
2022/01/29 01:29:15;;;;;;;51.63;12.73;;;8.50;99.90;;;;;;5128750;27;20934;-71
2022/01/29 01:31:43;;;;;;;42.35;13.40;;;8.40;99.90;;;;;;5129789;27;20263;-71
2022/01/29 01:34:09;;;;;;;44.80;11.48;;;8.50;99.90;;;;;;5125996;27;20200;-71
2022/01/29 01:36:42;;;;;;;40.42;12.20;;;8.50;99.90;;;;;;5129441;27;20257;-71
2022/01/29 01:39:10;;;;;;;46.45;13.07;;;8.50;99.90;;;;;;5146471;27;20623;-70
2022/01/29 01:41:40;;;;;;;42.50;11.90;;;8.50;99.90;;;;;;5135719;27;20811;-71
2022/01/29 01:44:10;;;;;;;50.25;13.07;;;8.50;99.90;;;;;;5130264;27;20181;-71
2022/01/29 01:46:36;;;;;;;55.45;13.05;;;8.50;99.90;;;;;;5127717;27;20203;-71
2022/01/29 01:49:02;;;;;;;41.78;12.80;;;8.50;99.90;;;;;;5130561;27;20180;-72
2022/01/29 01:51:29;;;;;;;42.70;14.23;;;8.50;99.90;;;;;;5128789;27;20406;-71
2022/01/29 01:53:55;;;;;;;39.10;12.63;;;8.90;99.90;;;;;;5110672;27;20241;-71
2022/01/29 01:56:20;;;;;;;44.85;12.05;;;8.90;99.90;;;;;;5129641;27;20188;-72
2022/01/29 01:58:46;;;;;;;36.42;11.48;;;8.80;99.90;;;;;;5128536;27;20193;-71
2022/01/29 02:01:12;;;;;;;42.08;11.50;;;8.70;99.90;;;;;;5129256;27;20180;-70
2022/01/29 02:03:38;;;;;;;51.90;14.43;;;8.70;99.90;;;;;;5129248;27;20501;-70
2022/01/29 02:06:04;;;;;;;44.90;12.30;;;9.10;99.90;;;;;;5130498;27;20259;-71
2022/01/29 02:08:30;;;;;;;41.47;12.27;;;9.00;99.90;;;;;;5129261;27;20184;-71
2022/01/29 02:11:03;;;;;;;40.78;11.77;;;8.90;99.90;;;;;;5129225;27;20237;-71
2022/01/29 02:13:29;;;;;;;42.85;11.70;;;8.80;99.90;;;;;;5109816;27;20187;-72
2022/01/29 02:15:55;;;;;;;42.92;11.35;;;8.80;99.90;;;;;;5130431;27;20177;-71
2022/01/29 02:18:21;;;;;;;46.38;12.60;;;8.70;99.90;;;;;;5126113;27;20577;-71
2022/01/29 02:20:48;;;;;;;38.80;10.88;;;8.70;99.90;;;;;;5129717;27;20204;-70
2022/01/29 02:23:14;;;;;;;43.58;11.85;;;8.70;99.90;;;;;;5129816;27;20205;-70
2022/01/29 02:25:45;;;;;;;45.08;11.63;;;8.70;99.90;;;;;;5130830;27;20192;-71
2022/01/29 02:28:19;;;;;;;39.28;10.23;;;8.70;99.90;;;;;;5127177;27;20187;-71
2022/01/29 02:30:48;;;;;;;40.40;12.10;;;8.70;99.90;;;;;;5128355;27;20497;-71
2022/01/29 02:33:15;;;;;;;40.42;12.20;;;9.10;99.90;;;;;;5127811;27;20406;-71
2022/01/29 02:35:47;;;;;;;37.00;10.75;;;9.50;99.90;;;;;;5126920;27;20228;-71
2022/01/29 02:38:14;;;;;;;35.33;11.30;;;9.20;99.90;;;;;;5119654;27;20180;-71
2022/01/29 02:40:49;;;;;;;39.30;10.88;;;9.00;99.90;;;;;;5110053;27;20212;-71
2022/01/29 02:43:21;;;;;;;35.75;11.25;;;8.90;99.90;;;;;;5127635;27;20187;-71
2022/01/29 02:45:48;;;;;;;39.63;11.05;;;8.90;99.90;;;;;;5128930;27;20192;-72
2022/01/29 02:48:14;;;;;;;35.85;11.02;;;8.80;99.90;;;;;;5123094;27;20207;-71
2022/01/29 02:50:41;;;;;;;37.88;11.20;;;8.80;99.90;;;;;;5110127;27;20271;-70
2022/01/29 02:53:07;;;;;;;35.30;11.00;;;8.80;99.90;;;;;;5127294;27;20244;-70
2022/01/29 02:55:33;;;;;;;36.75;10.90;;;8.80;99.90;;;;;;5109130;27;20665;-71
2022/01/29 02:57:59;;;;;;;48.67;11.10;;;8.70;99.90;;;;;;5110093;28;20201;-71
2022/01/29 03:00:25;;;;;;;40.10;10.40;;;8.70;99.90;;;;;;5126894;27;20239;-70
2022/01/29 03:02:51;;;;;;;36.63;10.45;;;8.70;99.90;;;;;;5107877;27;20181;-71
2022/01/29 03:05:17;;;;;;;58.50;10.93;;;8.70;99.90;;;;;;5128377;27;20263;-71
2022/01/29 03:07:42;;;;;;;36.40;9.98;;;8.70;99.90;;;;;;5130583;27;20557;-71
2022/01/29 03:10:08;;;;;;;40.55;10.07;;;8.70;99.90;;;;;;5125976;27;20188;-70
2022/01/29 03:12:37;;;;;;;38.78;10.18;;;8.70;99.90;;;;;;5109955;27;20192;-71
2022/01/29 03:15:06;;;;;;;38.88;9.68;;;8.70;99.90;;;;;;5126831;27;20188;-71
2022/01/29 03:17:32;;;;;;;42.55;10.50;;;8.70;99.90;;;;;;5126541;27;20188;-71
2022/01/29 03:19:58;;;;;;;34.35;10.18;;;8.70;99.90;;;;;;5108975;27;20668;-71
2022/01/29 03:22:23;;;;;;;42.72;10.43;;;8.70;99.90;;;;;;5126532;27;20192;-70
2022/01/29 03:24:49;;;;;;;34.58;9.65;;;8.70;99.90;;;;;;5127194;27;20180;-70
2022/01/29 03:27:14;;;;;;;33.00;9.25;;;8.70;99.90;;;;;;5126563;27;20188;-70
2022/01/29 03:29:40;;;;;;;43.85;11.02;;;8.70;99.90;;;;;;5124719;27;20506;-71
2022/01/29 03:32:06;;;;;;;39.40;10.73;;;8.70;99.90;;;;;;5129917;27;20188;-71
2022/01/29 03:34:32;;;;;;;31.73;9.65;;;8.70;99.90;;;;;;5113243;27;20552;-71
2022/01/29 03:36:58;;;;;;;39.10;10.70;;;8.70;99.90;;;;;;5114933;27;20290;-71
2022/01/29 03:39:25;;;;;;;40.22;10.95;;;8.80;99.90;;;;;;5130861;27;20236;-71
2022/01/29 03:41:52;;;;;;;41.58;10.70;;;8.80;99.90;;;;;;5145206;27;20642;-71
2022/01/29 03:44:18;;;;;;;29.17;10.07;;;8.80;99.90;;;;;;5133607;27;20569;-71
2022/01/29 03:46:44;;;;;;;36.92;9.90;;;8.80;99.90;;;;;;5133129;27;20644;-71
2022/01/29 03:49:11;;;;;;;31.67;10.02;;;8.80;99.90;;;;;;5130203;27;20192;-71
2022/01/29 03:51:36;;;;;;;31.42;9.60;;;8.80;99.90;;;;;;5129975;27;20597;-71
2022/01/29 03:54:02;;;;;;;32.88;9.48;;;8.90;99.90;;;;;;5128588;27;20177;-71
2022/01/29 03:56:28;;;;;;;45.78;10.48;;;8.80;99.90;;;;;;5111976;27;20324;-71
2022/01/29 03:58:53;;;;;;;39.70;10.30;;;8.80;99.90;;;;;;5130840;27;20562;-70
2022/01/29 04:01:19;;;;;;;34.33;9.90;;;8.80;99.90;;;;;;5132540;27;20283;-71
2022/01/29 04:03:44;;;;;;;33.63;9.90;;;8.80;99.90;;;;;;5130911;27;20628;-71
2022/01/29 04:06:10;;;;;;;33.80;9.90;;;8.80;99.90;;;;;;5132034;27;20169;-71
2022/01/29 04:08:40;;;;;;;35.25;9.65;;;8.80;99.90;;;;;;5131183;27;20181;-70
2022/01/29 04:11:12;;;;;;;42.92;10.18;;;8.80;99.90;;;;;;5132254;27;20570;-71
2022/01/29 04:13:45;;;;;;;30.17;9.35;;;8.80;99.90;;;;;;5131008;27;20268;-71
2022/01/29 04:16:12;;;;;;;34.65;9.77;;;8.80;99.90;;;;;;5114398;27;20226;-70
2022/01/29 04:18:37;;;;;;;50.78;9.68;;;8.80;99.90;;;;;;5129968;27;20189;-71
2022/01/29 04:21:04;;;;;;;41.63;9.48;;;8.80;99.90;;;;;;5131763;27;20207;-71
2022/01/29 04:23:31;;;;;;;41.33;9.68;;;8.80;99.90;;;;;;5096850;27;20192;-70
2022/01/29 04:25:56;;;;;;;35.97;9.57;;;8.80;99.90;;;;;;5136524;27;20194;-70
2022/01/29 04:28:28;;;;;;;45.45;10.85;;;8.80;99.90;;;;;;5109006;27;20652;-70
2022/01/29 04:31:01;;;;;;;33.10;10.15;;;8.80;99.90;;;;;;5111976;27;20181;-70
2022/01/29 04:33:30;;;;;;;39.13;9.38;;;8.80;99.90;;;;;;5111994;27;20181;-70
2022/01/29 04:35:58;;;;;;;26.58;9.15;;;8.80;99.90;;;;;;5131477;27;20652;-71
2022/01/29 04:38:25;;;;;;;38.95;9.27;;;8.80;99.90;;;;;;5130463;27;20180;-71
2022/01/29 04:40:51;;;;;;;43.42;9.80;;;8.80;99.90;;;;;;5129634;27;20208;-71
2022/01/29 04:43:17;;;;;;;38.83;9.82;;;8.90;99.90;;;;;;5130456;27;20220;-71
2022/01/29 04:45:42;;;;;;;39.67;9.13;;;8.90;99.90;;;;;;5129859;27;20212;-71
2022/01/29 04:48:08;;;;;;;33.97;8.52;;;8.90;99.90;;;;;;5131995;27;20180;-71
2022/01/29 04:50:33;;;;;;;43.63;9.25;;;8.90;99.90;;;;;;5131281;27;20192;-71
2022/01/29 04:52:59;;;;;;;28.42;7.97;;;9.00;99.90;;;;;;5113522;27;20253;-71
2022/01/29 04:55:25;;;;;;;28.60;8.10;;;9.00;99.90;;;;;;5128981;27;20184;-71
2022/01/29 04:57:50;;;;;;;39.42;8.93;;;9.00;99.90;;;;;;5113682;27;20232;-71
2022/01/29 05:00:20;;;;;;;28.58;7.95;;;9.00;99.90;;;;;;5096970;27;21163;-70
2022/01/29 05:02:47;;;;;;;32.35;9.32;;;9.10;99.90;;;;;;5139194;27;20312;-71
2022/01/29 05:05:13;;;;;;;32.45;8.18;;;9.10;99.90;;;;;;5129665;27;20185;-71
2022/01/29 05:07:38;;;;;;;33.60;7.78;;;9.10;99.90;;;;;;5128818;27;20195;-71
2022/01/29 05:10:05;;;;;;;27.30;7.55;;;9.10;99.90;;;;;;5131381;27;20183;-71
2022/01/29 05:12:41;;;;;;;30.10;7.80;;;9.10;99.90;;;;;;5131377;27;20702;-71
2022/01/29 05:28:51;;;;;;;35.58;7.22;;;9.10;99.90;;;;;;5146527;27;20196;-71
2022/01/29 05:31:17;;;;;;;32.88;7.85;;;9.10;99.90;;;;;;5129729;27;20705;-72
2022/01/29 05:33:42;;;;;;;23.23;6.47;;;9.10;99.90;;;;;;5111501;27;21869;-71
2022/01/29 05:36:08;;;;;;;24.50;7.07;;;9.10;99.90;;;;;;5112385;27;20225;-70
2022/01/29 05:38:34;;;;;;;30.35;6.82;;;9.10;99.90;;;;;;5125165;27;20233;-71
2022/01/29 05:41:01;;;;;;;31.52;6.68;;;9.10;99.90;;;;;;5128758;27;20620;-70
2022/01/29 05:43:26;;;;;;;27.30;7.13;;;9.10;99.90;;;;;;5127126;27;20226;-71
2022/01/29 05:45:52;;;;;;;34.72;8.25;;;9.10;99.90;;;;;;5130971;27;20192;-70
2022/01/29 05:48:17;;;;;;;32.72;6.88;;;9.10;99.90;;;;;;5109832;27;20648;-70
2022/01/29 05:50:43;;;;;;;26.45;6.68;;;9.10;99.90;;;;;;5101873;27;20177;-73
2022/01/29 05:53:09;;;;;;;23.10;6.60;;;9.10;99.90;;;;;;5107781;27;20192;-72
2022/01/29 05:55:35;;;;;;;29.23;7.05;;;9.10;99.90;;;;;;5127968;27;20540;-70
2022/01/29 05:58:00;;;;;;;34.90;7.03;;;9.10;99.90;;;;;;5133913;27;20249;-69
2022/01/29 06:00:26;;;;;;;33.67;6.65;;;9.10;99.90;;;;;;5128643;27;20245;-70
2022/01/29 06:03:00;;;;;;;28.17;6.05;;;9.10;99.90;;;;;;5128587;27;20199;-70
2022/01/29 06:05:25;;;;;;;27.60;6.57;;;9.20;99.90;;;;;;5109563;27;20194;-70
2022/01/29 06:07:51;;;;;;;25.33;7.00;;;9.20;99.90;;;;;;5128651;27;20184;-70
2022/01/29 06:10:17;;;;;;;21.23;6.47;;;9.20;99.90;;;;;;5139076;27;20192;-71
2022/01/29 06:12:43;;;;;;;25.75;6.00;;;9.20;99.90;;;;;;5109741;27;20296;-71
2022/01/29 06:15:09;;;;;;;26.35;6.07;;;9.20;99.90;;;;;;5125965;27;20189;-72
2022/01/29 06:17:34;;;;;;;23.83;5.72;;;9.20;99.90;;;;;;5127285;27;20192;-71
2022/01/29 06:20:00;;;;;;;30.35;6.32;;;9.20;99.90;;;;;;5127900;27;20201;-72
2022/01/29 06:22:26;;;;;;;19.00;5.40;;;9.20;99.90;;;;;;5132923;27;20210;-71
2022/01/29 06:24:52;;;;;;;27.85;5.90;;;9.20;99.90;;;;;;5128255;27;20624;-72
2022/01/29 06:27:18;;;;;;;27.40;5.65;;;9.20;99.90;;;;;;5149803;27;20191;-72
2022/01/29 06:29:43;;;;;;;23.70;5.35;;;9.30;99.90;;;;;;5141267;27;20191;-71
2022/01/29 06:32:09;;;;;;;24.80;4.80;;;9.30;99.90;;;;;;5108892;27;20539;-72
2022/01/29 06:34:35;;;;;;;26.55;5.57;;;9.30;99.90;;;;;;5125129;27;20207;-72
2022/01/29 06:37:00;;;;;;;32.88;5.80;;;9.30;99.90;;;;;;5109284;27;20782;-71
2022/01/29 06:39:27;;;;;;;26.98;5.95;;;9.30;99.90;;;;;;5127289;27;20212;-71
2022/01/29 06:41:53;;;;;;;35.85;5.97;;;9.30;99.90;;;;;;5127899;27;20259;-71
2022/01/29 06:44:18;;;;;;;29.55;5.68;;;9.30;99.90;;;;;;5108485;27;20906;-72
2022/01/29 06:46:44;;;;;;;25.52;5.88;;;9.30;99.90;;;;;;5124256;27;20569;-72
2022/01/29 06:49:09;;;;;;;30.10;6.32;;;9.30;99.90;;;;;;5123730;27;20241;-72
2022/01/29 06:51:35;;;;;;;29.55;6.20;;;9.30;99.90;;;;;;5109876;27;20189;-73
2022/01/29 06:54:00;;;;;;;33.92;6.13;;;9.30;99.90;;;;;;5125386;27;20184;-73
2022/01/29 06:56:26;;;;;;;23.35;5.25;;;9.30;99.90;;;;;;5129322;27;20624;-72
2022/01/29 06:58:52;;;;;;;31.90;5.97;;;9.30;99.90;;;;;;5133996;27;20213;-72
2022/01/29 07:01:17;;;;;;;23.92;5.97;;;9.30;99.90;;;;;;5124990;27;20211;-73
2022/01/29 07:03:43;;;;;;;26.35;5.85;;;9.40;99.90;;;;;;5123533;27;20195;-72
2022/01/29 07:06:08;;;;;;;22.17;5.50;;;9.40;99.90;;;;;;5108112;27;20188;-73
2022/01/29 07:08:37;;;;;;;22.98;5.68;;;9.40;99.90;;;;;;5126085;27;20210;-73
2022/01/29 07:11:03;;;;;;;26.42;5.55;;;9.40;99.90;;;;;;5127896;27;20632;-71
2022/01/29 07:13:29;;;;;;;27.92;5.30;;;9.40;99.90;;;;;;5106628;27;20260;-71
2022/01/29 07:15:54;;;;;;;21.92;4.53;;;9.40;99.90;;;;;;5126333;27;20208;-72
2022/01/29 07:18:20;;;;;;;31.38;5.05;;;9.40;99.90;;;;;;5126033;27;20191;-72
2022/01/29 07:20:47;;;;;;;24.13;4.55;;;9.40;99.90;;;;;;5127960;27;20252;-73
2022/01/29 07:23:13;;;;;;;24.02;4.60;;;9.40;99.90;;;;;;5107914;27;20587;-72
2022/01/29 07:25:39;;;;;;;22.92;4.20;;;9.40;99.90;;;;;;5108357;28;20255;-72
2022/01/29 07:28:04;;;;;;;28.73;4.93;;;9.40;99.90;;;;;;5139135;27;20188;-73
2022/01/29 07:30:30;;;;;;;22.55;4.28;;;9.50;99.90;;;;;;5127418;27;20172;-72
2022/01/29 07:32:55;;;;;;;26.52;3.92;;;9.50;99.90;;;;;;5109542;27;20185;-72
2022/01/29 07:35:21;;;;;;;20.33;4.50;;;9.50;99.90;;;;;;5125399;27;20216;-73
2022/01/29 07:37:47;;;;;;;24.35;3.75;;;9.50;99.90;;;;;;5143787;27;20290;-72
2022/01/29 07:40:12;;;;;;;18.35;3.90;;;9.50;99.90;;;;;;5108227;28;20212;-75
2022/01/29 07:42:38;;;;;;;23.55;3.72;;;9.50;99.90;;;;;;5108436;27;20185;-73
2022/01/29 07:45:04;;;;;;;21.02;3.75;;;9.60;99.90;;;;;;5141255;27;20192;-72
2022/01/29 07:47:30;;;;;;;23.33;3.97;;;9.60;99.90;;;;;;5127489;27;20917;-73
2022/01/29 07:49:55;;;;;;;27.15;3.38;;;9.60;99.90;;;;;;5106149;27;20188;-74
2022/01/29 07:52:21;;;;;;;26.88;3.63;;;9.60;99.90;;;;;;5126793;27;20176;-73
2022/01/29 07:54:47;;;;;;;20.85;3.58;;;9.60;99.90;;;;;;5105433;27;20197;-74
2022/01/29 07:57:12;;;;;;;22.17;3.90;;;9.60;99.90;;;;;;5110240;27;20659;-74
2022/01/29 07:59:38;;;;;;;19.40;3.03;;;9.70;99.90;;;;;;5125729;27;20219;-74
2022/01/29 08:02:03;;;;;;;20.55;3.67;;;9.70;99.90;;;;;;5108250;27;20176;-74
2022/01/29 08:04:29;;;;;;;29.63;4.45;;;9.70;99.90;;;;;;5125369;27;20195;-73
2022/01/29 08:06:55;;;;;;;30.02;4.05;;;9.80;99.90;;;;;;5127395;27;20191;-73
2022/01/29 08:09:20;;;;;;;21.02;3.92;;;9.80;99.90;;;;;;5141835;27;20645;-74
2022/01/29 08:11:46;;;;;;;25.25;3.40;;;9.80;99.90;;;;;;5108838;27;20265;-72
2022/01/29 08:14:12;;;;;;;21.35;3.80;;;9.80;99.90;;;;;;5125774;27;20185;-72
2022/01/29 08:16:38;;;;;;;21.08;3.58;;;9.80;99.90;;;;;;5130411;27;20188;-73
2022/01/29 08:19:03;;;;;;;20.33;3.60;;;9.80;99.90;;;;;;5112279;27;20207;-72
2022/01/29 08:21:29;;;;;;;24.48;3.83;;;9.90;99.90;;;;;;5113791;27;20220;-74
2022/01/29 08:23:54;;;;;;;22.60;3.92;;;9.90;99.90;;;;;;5135845;27;20559;-72
2022/01/29 08:26:20;;;;;;;18.45;3.47;;;9.90;99.90;;;;;;5136005;27;20180;-74
2022/01/29 08:28:46;;;;;;;20.73;3.65;;;9.90;99.90;;;;;;5114452;27;20275;-72
2022/01/29 08:31:11;;;;;;;21.35;3.17;;;9.90;99.90;;;;;;5114140;27;20176;-73
2022/01/29 08:33:38;;;;;;;19.08;3.03;;;10.00;99.90;;;;;;5127794;27;20211;-73
2022/01/29 08:36:04;;;;;;;22.73;3.15;;;10.00;99.90;;;;;;5139236;27;20316;-72
2022/01/29 08:38:30;;;;;;;22.25;3.03;;;10.00;99.90;;;;;;5124159;27;20185;-73
2022/01/29 08:40:58;;;;;;;18.15;2.88;;;10.00;99.90;;;;;;5129490;27;20212;-72
2022/01/29 08:43:24;;;;;;;20.40;3.05;;;10.00;99.90;;;;;;5108020;27;20188;-71
2022/01/29 08:45:51;;;;;;;21.95;3.40;;;10.00;99.90;;;;;;5131966;27;20208;-72
2022/01/29 08:48:18;;;;;;;26.15;3.40;;;10.00;99.90;;;;;;5124367;27;20185;-73
2022/01/29 08:50:43;;;;;;;14.90;3.65;;;10.10;99.90;;;;;;5130678;27;20206;-72
2022/01/29 08:53:09;;;;;;;20.13;2.80;;;10.10;99.90;;;;;;5120278;27;20212;-73
2022/01/29 08:55:38;;;;;;;20.25;4.53;;;10.10;99.90;;;;;;5113533;27;20184;-73
2022/01/29 08:58:08;;;;;;;33.00;3.38;;;10.00;99.90;;;;;;5130994;27;20216;-73
2022/01/29 09:00:35;;;;;;;22.52;3.20;;;10.00;99.90;;;;;;5125953;27;20207;-72
2022/01/29 09:03:02;;;;;;;24.75;3.60;;;10.00;99.90;;;;;;5113349;27;20212;-73
2022/01/29 09:05:27;;;;;;;20.55;3.55;;;10.00;99.90;;;;;;5112078;27;20549;-72
2022/01/29 09:07:54;;;;;;;28.08;3.15;;;10.00;99.90;;;;;;5112327;27;20195;-73
2022/01/29 09:10:20;;;;;;;26.35;3.22;;;10.00;99.90;;;;;;5129732;27;20227;-72
2022/01/29 09:12:46;;;;;;;27.98;3.72;;;9.90;99.90;;;;;;5129587;27;20211;-74
2022/01/29 09:15:11;;;;;;;30.42;3.03;;;9.90;99.90;;;;;;5124832;27;20195;-74
2022/01/29 09:17:39;;;;;;;17.02;3.05;;;10.00;99.90;;;;;;5129968;27;20189;-74
2022/01/29 09:20:07;;;;;;;33.50;3.55;;;10.00;99.90;;;;;;5129795;27;20219;-73
2022/01/29 09:22:33;;;;;;;23.92;2.85;;;10.00;99.90;;;;;;5131343;27;20180;-72
2022/01/29 09:24:58;;;;;;;24.20;3.47;;;10.00;99.90;;;;;;5145703;27;20226;-75
2022/01/29 09:27:24;;;;;;;22.95;3.33;;;10.00;99.90;;;;;;5108690;28;20191;-74
2022/01/29 09:29:50;;;;;;;23.30;3.55;;;10.10;99.90;;;;;;5130799;27;20219;-72
2022/01/29 09:32:15;;;;;;;19.20;3.40;;;10.10;99.90;;;;;;5139353;27;20191;-74
2022/01/29 09:34:41;;;;;;;21.95;3.10;;;10.20;99.90;;;;;;5149838;27;20181;-73
2022/01/29 09:37:07;;;;;;;26.40;3.83;;;10.40;99.90;;;;;;5130494;27;20424;-72
2022/01/29 09:39:32;;;;;;;;;;;11.80;99.90;;;;;;5111088;27;20484;-72
2022/01/29 09:41:58;;;;;;;17.33;3.45;;;12.30;99.90;;;;;;5129986;27;20903;-73
2022/01/29 09:44:24;;;;;;;18.15;3.20;;;13.90;99.90;;;;;;5145417;27;20983;-73
2022/01/29 09:46:51;;;;;;;;;;;15.40;99.90;;;;;;5130650;27;20026;-74
2022/01/29 09:49:17;;;;;;;;;;;15.20;99.90;;;;;;5133921;27;19907;-73
2022/01/29 09:51:42;;;;;;;;;;;15.30;99.90;;;;;;5115436;27;20370;-74
2022/01/29 09:54:08;;;;;;;;;;;15.40;99.90;;;;;;5130955;27;20272;-74
2022/01/29 09:56:34;;;;;;;;;;;15.70;99.90;;;;;;5139280;27;19930;-73
2022/01/29 09:58:59;;;;;;;;;;;15.90;99.90;;;;;;5132198;27;19919;-73
2022/01/29 10:01:25;;;;;;;;;;;16.10;99.90;;;;;;5113765;27;19907;-74
2022/01/29 10:04:04;;;;;;;;;;;16.30;99.90;;;;;;5135756;27;19914;-74
2022/01/29 10:06:31;;;;;;;;;;;16.40;99.90;;;;;;5131178;27;19908;-72
2022/01/29 10:08:57;;;;;;;;;;;16.60;99.90;;;;;;5115525;27;19915;-73
2022/01/29 10:11:23;;;;;;;;;;;16.70;99.90;;;;;;5135922;27;19911;-74
2022/01/29 10:13:49;;;;;;;;;;;17.10;99.90;;;;;;5115172;27;19908;-75
2022/01/29 10:16:15;;;;;;;;;;;17.10;99.90;;;;;;5140351;27;20270;-75
2022/01/29 10:18:47;;;;;;;;;;;17.10;99.90;;;;;;5113315;27;19908;-74
2022/01/29 10:21:23;;;;;;;;;;;17.20;99.90;;;;;;5141774;27;19911;-76
2022/01/29 10:23:48;;;;;;;;;;;17.20;99.90;;;;;;5111932;27;19998;-73
2022/01/29 10:26:30;;;;;;;;;;;17.20;99.90;;;;;;5133369;27;20084;-74
2022/01/29 10:28:56;;;;;;;;;;;17.10;99.90;;;;;;5135809;27;19911;-74
2022/01/29 10:31:22;;;;;;;;;;;17.00;99.90;;;;;;5137051;27;21358;-73
2022/01/29 10:33:48;;;;;;;;;;;17.10;99.90;;;;;;5137646;27;20378;-73
2022/01/29 10:36:17;;;;;;;;;;;17.10;99.90;;;;;;5112573;27;19911;-72
2022/01/29 10:38:42;;;;;;;;;;;16.80;99.90;;;;;;5140662;27;19964;-72
2022/01/29 10:41:29;;;;;;;;;;;16.50;99.90;;;;;;5129744;27;19919;-74
2022/01/29 10:44:12;;;;;;;14.43;2.67;;;16.10;99.90;;;;;;5130406;27;20271;-72
2022/01/29 10:46:46;;;;;;;19.38;3.08;;;15.50;99.90;;;;;;5111353;27;20426;-73
2022/01/29 10:49:23;;;;;;;17.87;3.10;;;15.90;97.30;;;;;;5093088;27;20953;-72
2022/01/29 10:52:00;;;;;;;16.73;3.10;;;16.10;96.20;;;;;;5106513;27;20498;-74
2022/01/29 10:54:26;;;;;;;18.90;3.08;;;16.10;95.10;;;;;;5125397;27;20782;-75
2022/01/29 10:56:52;;;;;;;17.40;2.90;;;16.00;95.00;;;;;;5110814;27;20406;-74
2022/01/29 10:59:18;;;;;;;;;;;15.70;95.40;;;;;;5130293;27;20440;-72
2022/01/29 11:01:51;;;;;;;;;;;14.90;96.40;;;;;;5112330;27;19949;-73
2022/01/29 11:04:16;;;;;;;;;;;14.20;97.90;;;;;;5129147;27;19919;-73
2022/01/29 11:06:45;;;;;;;;;;;13.80;98.90;;;;;;5129380;27;19911;-73
2022/01/29 11:09:11;;;;;;;;;;;13.50;99.80;;;;;;5120629;27;19907;-73
2022/01/29 11:11:38;;;;;;;;;;;13.40;99.90;;;;;;5133875;27;19916;-74
2022/01/29 11:14:04;;;;;;;;;;;13.50;99.90;;;;;;5134390;27;20263;-74
2022/01/29 11:16:30;;;;;;;;;;;13.60;99.90;;;;;;5094575;27;19919;-75
2022/01/29 11:18:56;;;;;;;;;;;13.90;99.90;;;;;;5129689;27;19907;-75
2022/01/29 11:21:21;;;;;;;;;;;14.20;99.90;;;;;;5118135;27;20358;-74
2022/01/29 11:23:47;;;;;;;;;;;14.30;99.90;;;;;;5128977;27;19914;-74
2022/01/29 11:26:13;;;;;;;;;;;14.10;99.90;;;;;;5109951;27;19930;-73
2022/01/29 11:28:38;;;;;;;;;;;14.10;99.90;;;;;;5126128;27;19912;-75
2022/01/29 11:31:15;;;;;;;15.23;2.65;;;14.30;99.90;;;;;;5129291;27;20770;-74
2022/01/29 11:33:59;;;;;;;;;;;14.70;99.90;;;;;;5112334;28;20372;-75
2022/01/29 11:36:45;;;;;;;;;;;15.00;99.90;;;;;;5116729;27;19919;-74
2022/01/29 11:39:24;;;;;;;;;;;15.10;99.20;;;;;;5114742;27;20382;-74
2022/01/29 11:42:08;;;;;;;;;;;15.20;99.90;;;;;;5119012;27;19911;-74
2022/01/29 11:44:33;;;;;;;;;;;15.40;99.90;;;;;;5125400;27;19955;-75
2022/01/29 11:47:19;;;;;;;;;;;15.70;99.90;;;;;;5136290;27;19958;-74
2022/01/29 11:49:44;;;;;;;12.95;2.60;;;15.90;99.80;;;;;;5109729;27;20614;-73
2022/01/29 11:52:22;;;;;;;15.98;3.13;;;16.20;99.50;;;;;;5133459;27;20410;-72
2022/01/29 11:54:59;;;;;;;16.38;2.90;;;17.50;93.00;;;;;;5129254;27;20398;-75
2022/01/29 11:57:24;;;;;;;15.10;2.60;;;18.10;90.30;;;;;;5128850;27;20794;-74
2022/01/29 11:59:50;;;;;;;18.67;3.23;;;18.40;88.00;;;;;;5148611;27;20463;-74
2022/01/29 12:02:16;;;;;;;19.02;3.30;;;18.60;86.30;;;;;;5121745;27;20410;-73
2022/01/29 12:04:52;;;;;;;18.88;3.30;;;18.50;85.50;;;;;;5145270;27;21240;-75
2022/01/29 12:07:32;;;;;;;15.98;3.30;;;18.70;85.40;;;;;;5111586;27;20491;-74
2022/01/29 12:10:05;;;;;;;21.48;3.47;;;18.70;83.50;;;;;;5113513;27;20414;-74
2022/01/29 12:12:34;;;;;;;20.13;3.78;;;18.40;84.20;;;;;;5135488;27;20510;-73
2022/01/29 12:15:08;;;;;;;20.95;3.90;;;18.10;85.60;;;;;;5118337;27;20422;-75
2022/01/29 12:17:44;;;;;;;;;;;17.50;86.60;;;;;;5118953;27;20016;-73
2022/01/29 12:20:12;;;;;;;;;;;16.30;90.10;;;;;;5139448;27;20014;-73
2022/01/29 12:22:38;;;;;;;;;;;15.50;92.00;;;;;;5136318;27;19914;-73
2022/01/29 12:25:05;;;;;;;;;;;15.20;93.40;;;;;;5141280;27;19930;-74
2022/01/29 12:27:43;;;;;;;;;;;15.10;94.20;;;;;;5118454;27;19907;-74
2022/01/29 12:30:09;;;;;;;;;;;15.10;94.80;;;;;;5134231;27;20040;-74
2022/01/29 12:32:35;;;;;;;;;;;15.20;95.00;;;;;;5134001;27;19921;-74
2022/01/29 12:35:03;;;;;;;;;;;15.20;95.00;;;;;;5131425;27;19907;-74
2022/01/29 12:37:28;;;;;;;;;;;15.50;95.30;;;;;;5124116;27;19919;-74
2022/01/29 12:40:06;;;;;;;;;;;15.60;95.10;;;;;;5133179;27;19984;-74
2022/01/29 12:42:43;;;;;;;;;;;15.60;95.00;;;;;;5138663;27;19907;-73
2022/01/29 12:45:09;;;;;;;;;;;15.60;95.10;;;;;;5130955;27;19911;-74
2022/01/29 12:47:35;;;;;;;;;;;15.60;95.30;;;;;;5114553;27;20387;-74
2022/01/29 12:50:01;;;;;;;;;;;15.50;95.40;;;;;;5131676;27;19987;-73
2022/01/29 12:52:28;;;;;;;;;;;15.50;95.40;;;;;;5135676;27;19918;-73
2022/01/29 12:54:54;;;;;;;;;;;15.50;95.60;;;;;;5130346;27;19911;-74
2022/01/29 12:57:20;;;;;;;;;;;15.60;95.50;;;;;;5135607;27;19915;-74
2022/01/29 12:59:46;;;;;;;;;;;15.40;94.90;;;;;;5129452;27;19960;-74
2022/01/29 13:02:12;;;;;;;;;;;15.10;95.30;;;;;;5132210;27;19907;-74
2022/01/29 13:04:38;;;;;;;22.30;3.33;;;14.80;95.60;;;;;;5130193;27;20663;-74
2022/01/29 13:07:05;;;;;;;;;;;14.50;95.80;;;;;;5138120;27;20118;-73
2022/01/29 13:09:34;;;;;;;;;;;14.10;96.10;;;;;;5135081;27;19957;-74
2022/01/29 13:12:10;;;;;;;19.38;3.03;;;13.80;96.90;;;;;;5136584;27;20187;-73
2022/01/29 13:14:36;;;;;;;21.88;4.10;;;13.60;96.70;;;;;;5129963;27;20409;-73